Time;durP1;ratioP1;P1;durP2;ratioP2;P2;SDS_P1;SDS_P2;PMS_P1;PMS_P2;Temp;Humidity;BMP_temperature;BMP_pressure;BME280_temperature;BME280_humidity;BME280_pressure;Samples;Min_cycle;Max_cycle;Signal;HPM_P1;HPM_P2
2022/04/30 00:01:04;;;;;;;10.70;3.85;;;;;;;7.30;87.88;101557.71;1715086;82;20862;-44
2022/04/30 00:03:32;;;;;;;11.28;4.12;;;;;;;7.29;87.18;101559.84;1735912;82;21035;-44
2022/04/30 00:05:58;;;;;;;5.58;4.30;;;;;;;7.27;86.83;101558.96;1735948;82;21059;-44
2022/04/30 00:08:25;;;;;;;9.23;4.83;;;;;;;7.25;86.66;101559.37;1735846;82;21510;-44
2022/04/30 00:10:53;;;;;;;13.38;5.90;;;;;;;7.22;87.27;101564.05;1735891;82;20880;-44
2022/04/30 00:13:21;;;;;;;11.45;6.37;;;;;;;7.17;87.67;101567.84;1736001;82;20972;-43
2022/04/30 00:15:49;;;;;;;26.10;10.88;;;;;;;7.12;88.04;101568.20;1736128;82;20980;-44
2022/04/30 00:18:16;;;;;;;28.12;13.28;;;;;;;7.05;88.33;101565.95;1736035;82;21146;-44
2022/04/30 00:20:47;;;;;;;17.80;10.00;;;;;;;7.00;88.52;101569.33;1735872;82;20913;-44
2022/04/30 00:23:21;;;;;;;18.62;9.10;;;;;;;6.94;89.00;101565.36;1715328;82;21406;-44
2022/04/30 00:25:52;;;;;;;15.08;7.42;;;;;;;6.87;89.35;101566.56;1735930;82;20968;-43
2022/04/30 00:28:22;;;;;;;20.00;9.20;;;;;;;6.80;89.70;101564.75;1736071;82;20922;-44
2022/04/30 00:30:49;;;;;;;17.92;9.65;;;;;;;6.72;90.19;101563.34;1715317;82;21394;-44
2022/04/30 00:33:16;;;;;;;17.62;9.53;;;;;;;6.65;90.56;101564.51;1735897;82;20965;-44
2022/04/30 00:35:43;;;;;;;15.50;10.15;;;;;;;6.58;90.91;101573.42;1715133;82;20937;-44
2022/04/30 00:38:10;;;;;;;17.10;9.48;;;;;;;6.51;91.10;101565.58;1735890;82;21008;-43
2022/04/30 00:40:37;;;;;;;16.77;9.73;;;;;;;6.43;91.24;101565.45;1736011;82;20936;-44
2022/04/30 00:43:06;;;;;;;14.10;9.00;;;;;;;6.35;91.31;101559.31;1736139;82;21836;-44
2022/04/30 00:45:32;;;;;;;17.92;8.63;;;;;;;6.27;91.55;101558.78;1735964;82;20905;-43
2022/04/30 00:48:00;;;;;;;17.82;9.40;;;;;;;6.17;91.68;101555.58;1736018;82;20918;-43
2022/04/30 00:50:30;;;;;;;18.00;10.35;;;;;;;6.07;91.74;101560.13;1735956;82;20881;-43
2022/04/30 00:52:57;;;;;;;21.25;13.08;;;;;;;5.96;91.77;101559.50;1735894;81;20960;-44
2022/04/30 00:55:27;;;;;;;14.75;7.87;;;;;;;5.86;91.74;101562.71;1735867;82;21229;-43
2022/04/30 00:57:54;;;;;;;14.33;7.62;;;;;;;5.74;91.18;101558.20;1735872;82;20976;-43
2022/04/30 01:00:21;;;;;;;16.67;8.80;;;;;;;5.63;90.75;101558.00;1735987;81;20969;-43
2022/04/30 01:02:56;;;;;;;15.30;8.83;;;;;;;5.53;90.51;101558.66;1737461;82;20953;-43
2022/04/30 01:05:41;;;;;;;13.35;6.45;;;;;;;5.50;91.45;101561.17;1735974;82;21242;-43
2022/04/30 01:08:08;;;;;;;12.55;6.62;;;;;;;5.52;92.86;101559.50;1735920;82;21148;-43
2022/04/30 01:10:36;;;;;;;9.45;5.53;;;;;;;5.51;93.73;101559.05;1735917;82;20917;-44
2022/04/30 01:13:03;;;;;;;16.57;6.00;;;;;;;5.47;94.46;101551.69;1736010;82;20988;-44
2022/04/30 01:15:30;;;;;;;13.65;5.97;;;;;;;5.46;95.12;101561.11;1735876;82;21016;-43
2022/04/30 01:17:56;;;;;;;15.45;4.70;;;;;;;5.42;95.56;101558.44;1735982;82;20949;-45
2022/04/30 01:20:23;;;;;;;9.63;4.62;;;;;;;5.37;96.01;101554.48;1735921;82;22027;-43
2022/04/30 01:23:02;;;;;;;7.42;4.90;;;;;;;5.34;96.63;101549.72;1735800;82;20893;-43
2022/04/30 01:25:30;;;;;;;5.78;4.10;;;;;;;5.32;97.09;101552.24;1735878;82;20968;-44
2022/04/30 01:27:59;;;;;;;10.78;5.40;;;;;;;5.28;97.23;101549.17;1735796;82;20925;-43
2022/04/30 01:30:27;;;;;;;6.95;4.80;;;;;;;5.23;97.39;101554.20;1735943;81;20901;-43
2022/04/30 01:38:24;;;;;;;6.70;3.93;;;;;;;5.05;97.32;101543.13;1736167;82;21016;-44
2022/04/30 01:40:50;;;;;;;10.88;5.22;;;;;;;4.98;96.96;101538.70;1714895;82;20932;-44
2022/04/30 01:43:17;;;;;;;9.45;5.05;;;;;;;4.95;96.83;101543.77;1735877;82;20968;-45
2022/04/30 01:45:44;;;;;;;6.28;3.47;;;;;;;4.92;96.98;101545.83;1735908;82;21130;-44
2022/04/30 01:48:14;;;;;;;8.58;4.85;;;;;;;4.87;96.84;101544.87;1735961;82;20937;-44
2022/04/30 01:50:41;;;;;;;6.08;4.45;;;;;;;4.81;96.63;101542.17;1735928;82;20897;-44
2022/04/30 01:53:09;;;;;;;8.23;4.85;;;;;;;4.74;96.44;101541.16;1736074;82;21428;-42
2022/04/30 01:55:37;;;;;;;12.20;5.15;;;;;;;4.67;96.46;101538.86;1735935;82;21582;-42
2022/04/30 01:58:05;;;;;;;9.85;5.45;;;;;;;4.60;96.35;101540.41;1735821;81;21142;-42
2022/04/30 02:00:32;;;;;;;9.40;4.67;;;;;;;4.51;96.37;101535.06;1735786;81;20870;-42
2022/04/30 02:03:08;;;;;;;5.60;4.22;;;;;;;4.51;96.40;101539.31;1735872;82;21542;-42
2022/04/30 02:05:37;;;;;;;5.25;4.00;;;;;;;4.44;96.39;101539.61;1735951;82;21023;-42
2022/04/30 02:08:09;;;;;;;9.00;4.22;;;;;;;4.37;96.57;101544.99;1735929;82;20905;-42
2022/04/30 02:10:40;;;;;;;11.35;3.77;;;;;;;4.34;97.15;101539.80;1736039;82;21077;-42
2022/04/30 02:13:09;;;;;;;12.43;4.12;;;;;;;4.35;97.92;101540.25;1715262;82;20941;-42
2022/04/30 02:15:37;;;;;;;7.78;3.95;;;;;;;4.38;98.67;101539.03;1715087;82;20939;-42
2022/04/30 02:18:04;;;;;;;7.28;3.67;;;;;;;4.35;98.99;101548.34;1735849;81;21589;-42
2022/04/30 02:20:37;;;;;;;7.62;4.62;;;;;;;4.27;99.41;101542.61;1736093;81;20905;-42
2022/04/30 02:23:08;;;;;;;8.60;4.47;;;;;;;4.23;100.00;101549.78;1736127;82;21989;-43
2022/04/30 02:25:33;;;;;;;5.42;3.70;;;;;;;4.19;100.00;101542.84;1735812;81;20918;-42
2022/04/30 02:28:04;;;;;;;6.40;3.85;;;;;;;4.16;100.00;101549.14;1736092;82;20933;-42
2022/04/30 02:30:35;;;;;;;9.65;3.52;;;;;;;4.09;100.00;101545.58;1735838;82;20882;-42
2022/04/30 02:33:12;;;;;;;10.18;3.98;;;;;;;4.02;100.00;101548.39;1736085;82;20988;-42
2022/04/30 02:35:44;;;;;;;7.08;3.95;;;;;;;3.97;100.00;101547.41;1735849;82;20842;-42
2022/04/30 02:38:10;;;;;;;5.12;3.80;;;;;;;3.94;100.00;101551.18;1735698;82;20933;-42
2022/04/30 02:40:39;;;;;;;11.70;4.12;;;;;;;3.91;100.00;101556.63;1735903;81;20835;-43
2022/04/30 02:43:10;;;;;;;7.28;4.15;;;;;;;3.89;100.00;101557.84;1735829;82;20886;-43
2022/04/30 02:45:38;;;;;;;6.15;4.20;;;;;;;3.85;100.00;101563.32;1735672;82;20949;-43
2022/04/30 02:48:07;;;;;;;5.28;4.10;;;;;;;3.84;100.00;101565.83;1715060;82;21809;-43
2022/04/30 02:50:35;;;;;;;7.58;4.42;;;;;;;3.85;100.00;101563.72;1727811;81;20860;-43
2022/04/30 02:53:02;;;;;;;5.33;3.67;;;;;;;3.85;100.00;101560.77;1757651;81;20889;-43
2022/04/30 02:55:28;;;;;;;5.87;3.77;;;;;;;3.84;100.00;101562.87;1757636;81;20993;-43
2022/04/30 03:00:43;;;;;;;5.92;3.30;;;;;;;3.91;100.00;101570.28;1711704;81;21161;-43
2022/04/30 03:03:31;;;;;;;4.35;3.67;;;;;;;3.90;100.00;101571.11;1757547;81;20912;-43
2022/04/30 03:06:00;;;;;;;6.10;4.12;;;;;;;3.90;100.00;101569.83;1757628;81;20964;-43
2022/04/30 03:08:27;;;;;;;14.85;3.75;;;;;;;3.91;100.00;101575.41;1754500;80;20936;-43
2022/04/30 03:10:56;;;;;;;10.43;2.95;;;;;;;3.92;100.00;101575.89;1730143;81;20924;-43
2022/04/30 03:13:24;;;;;;;8.25;3.65;;;;;;;3.96;100.00;101571.70;1757595;81;21142;-43
2022/04/30 03:15:54;;;;;;;3.42;3.10;;;;;;;4.01;100.00;101568.44;1757482;81;20857;-43
2022/04/30 03:23:55;;;;;;;7.60;3.10;;;;;;;4.25;100.00;101557.09;1757711;81;20972;-43
2022/04/30 03:26:24;;;;;;;6.95;3.60;;;;;;;4.33;100.00;101554.73;1757734;81;21241;-43
2022/04/30 03:28:51;;;;;;;7.50;3.52;;;;;;;4.42;100.00;101556.63;1757611;81;20912;-43
2022/04/30 03:31:18;;;;;;;5.15;3.67;;;;;;;4.51;100.00;101556.87;1757771;80;21477;-43
2022/04/30 03:33:48;;;;;;;6.92;3.80;;;;;;;4.62;100.00;101548.15;1757578;81;20928;-43
2022/04/30 03:36:15;;;;;;;6.47;3.55;;;;;;;4.72;100.00;101553.94;1757636;80;21022;-43
2022/04/30 03:38:43;;;;;;;5.80;3.42;;;;;;;4.87;100.00;101555.13;1757633;81;21158;-43
2022/04/30 03:41:09;;;;;;;9.28;4.00;;;;;;;4.99;100.00;101559.24;1757605;81;20975;-43
2022/04/30 03:43:38;;;;;;;9.48;4.08;;;;;;;5.11;100.00;101556.52;1757537;81;20931;-43
2022/04/30 03:46:05;;;;;;;5.90;3.37;;;;;;;5.29;100.00;101557.31;1757521;81;20996;-43
2022/04/30 03:48:32;;;;;;;8.93;4.08;;;;;;;5.52;100.00;101553.08;1757524;81;21495;-43
2022/04/30 03:50:59;;;;;;;11.10;4.33;;;;;;;5.80;99.82;101550.61;1729675;81;21241;-44
2022/04/30 03:53:25;;;;;;;13.98;6.95;;;;;;;6.14;98.19;101554.25;1757571;81;20932;-45
2022/04/30 03:55:53;;;;;;;13.83;5.22;;;;;;;6.47;96.79;101556.97;1757643;81;20888;-45
2022/04/30 03:58:22;;;;;;;14.75;5.00;;;;;;;6.82;95.02;101554.47;1757514;80;20932;-42
2022/04/30 04:00:48;;;;;;;9.30;5.05;;;;;;;7.16;93.21;101551.09;1757600;81;21002;-43
2022/04/30 04:05:31;;;;;;;13.20;4.42;;;;;;;7.88;89.52;101560.11;1798324;79;23268;-43
2022/04/30 04:07:58;;;;;;;7.05;4.72;;;;;;;8.19;87.63;101554.36;1757854;81;20940;-43
2022/04/30 04:10:26;;;;;;;10.72;4.78;;;;;;;8.52;85.56;101554.66;1758109;81;21445;-44
2022/04/30 04:17:37;;;;;;;12.37;5.28;;;;;;;8.82;82.94;101551.45;1738897;81;20869;-44
2022/04/30 04:18:07;;;;;;;5.53;4.00;;;;;;;9.45;80.16;101547.00;1758245;81;20980;-43
2022/04/30 04:20:33;;;;;;;23.30;4.65;;;;;;;9.79;77.76;101552.72;1757959;81;20976;-43
2022/04/30 04:23:01;;;;;;;10.85;4.60;;;;;;;10.03;76.38;101553.62;1758190;81;21098;-44
2022/04/30 04:28:13;;;;;;;9.08;5.40;;;;;;;10.71;72.67;101546.31;1758051;81;20936;-44
2022/04/30 04:30:40;;;;;;;12.60;6.72;;;;;;;11.15;70.67;101549.68;1757997;81;21023;-44
2022/04/30 04:33:07;;;;;;;13.18;8.38;;;;;;;11.43;68.54;101553.00;1758047;81;20944;-45
2022/04/30 04:35:34;;;;;;;10.03;4.92;;;;;;;11.69;67.05;101553.76;1758000;81;21238;-43
2022/04/30 04:38:02;;;;;;;10.58;3.40;;;;;;;11.95;64.71;101548.39;1694038;83;21031;-45
2022/04/30 04:40:29;;;;;;;6.35;3.10;;;;;;;12.13;61.72;101549.18;1698536;84;20885;-42
2022/04/30 04:42:55;;;;;;;10.03;3.65;;;;;;;12.25;60.61;101554.29;1698483;84;21008;-44
2022/04/30 04:45:23;;;;;;;6.58;3.00;;;;;;;12.37;60.05;101548.11;1716589;83;20919;-43
2022/04/30 04:47:50;;;;;;;9.93;2.92;;;;;;;12.50;58.99;101545.84;1709245;84;21253;-44
2022/04/30 04:50:17;;;;;;;6.37;2.80;;;;;;;12.68;58.98;101546.97;1709097;84;20964;-44
2022/04/30 04:52:43;;;;;;;10.00;2.98;;;;;;;12.88;57.35;101551.95;1709141;84;20991;-43
2022/04/30 04:55:10;;;;;;;4.53;2.50;;;;;;;13.02;57.04;101554.44;1709162;83;20968;-43
2022/04/30 04:57:38;;;;;;;9.40;3.65;;;;;;;13.25;56.84;101555.87;1709178;84;20987;-44
2022/04/30 05:00:07;;;;;;;7.90;3.33;;;;;;;13.40;55.23;101554.40;1709027;82;21128;-44
2022/04/30 05:02:36;;;;;;;14.23;4.35;;;;;;;13.57;55.08;101552.06;1680980;84;20968;-43
2022/04/30 05:05:04;;;;;;;9.55;3.75;;;;;;;13.73;54.42;101557.45;1714792;83;20922;-44
2022/04/30 05:07:32;;;;;;;13.85;4.10;;;;;;;13.80;53.20;101554.33;1717594;83;20931;-44
2022/04/30 05:09:58;;;;;;;7.90;3.98;;;;;;;13.86;52.58;101552.94;1717312;83;21044;-44
2022/04/30 05:12:26;;;;;;;9.03;4.42;;;;;;;13.94;52.19;101556.73;1722229;82;21159;-44
2022/04/30 05:14:55;;;;;;;17.98;4.62;;;;;;;14.01;51.95;101553.14;1693094;84;20986;-43
2022/04/30 05:17:21;;;;;;;16.93;4.53;;;;;;;14.11;50.46;101556.92;1692898;84;20917;-45
2022/04/30 05:19:49;;;;;;;10.35;3.72;;;;;;;14.17;51.51;101551.61;1721770;83;20912;-45
2022/04/30 05:22:16;;;;;;;8.48;3.12;;;;;;;14.25;51.26;101554.94;1721730;83;21022;-45
2022/04/30 05:24:44;;;;;;;7.20;2.65;;;;;;;14.37;50.01;101554.75;1692721;84;21914;-45
2022/04/30 05:27:10;;;;;;;14.70;2.77;;;;;;;14.41;49.19;101550.36;1692789;84;21524;-45
2022/04/30 05:29:37;;;;;;;8.43;2.62;;;;;;;14.35;48.49;101553.92;1692878;84;21517;-44
2022/04/30 05:32:05;;;;;;;8.60;2.90;;;;;;;14.33;48.61;101555.69;1692701;83;21263;-43
2022/04/30 05:34:32;;;;;;;6.17;2.47;;;;;;;14.33;48.06;101557.42;1692821;84;20943;-44
2022/04/30 05:36:59;;;;;;;12.05;2.70;;;;;;;14.32;47.72;101551.80;1721533;83;21040;-44
2022/04/30 05:39:26;;;;;;;3.33;2.25;;;;;;;14.31;48.99;101548.78;1721680;83;20961;-45
2022/04/30 05:41:52;;;;;;;8.85;2.70;;;;;;;14.36;48.99;101551.73;1666887;84;21418;-44
2022/04/30 05:44:19;;;;;;;12.88;3.17;;;;;;;14.38;49.00;101558.20;1692763;84;21019;-43
2022/04/30 05:46:45;;;;;;;20.50;3.10;;;;;;;14.44;48.23;101558.55;1692731;84;20923;-43
2022/04/30 05:49:12;;;;;;;9.08;2.85;;;;;;;14.59;48.17;101566.53;1692559;84;21332;-43
2022/04/30 05:51:39;;;;;;;7.80;2.65;;;;;;;14.71;47.89;101559.85;1692949;84;21474;-43
2022/04/30 05:54:05;;;;;;;5.42;2.33;;;;;;;14.87;47.13;101558.25;1692921;84;21079;-43
2022/04/30 05:56:32;;;;;;;10.32;2.92;;;;;;;14.95;47.22;101558.98;1692878;84;21533;-43
2022/04/30 05:58:58;;;;;;;5.22;2.00;;;;;;;15.04;46.57;101562.70;1721639;83;21437;-43
2022/04/30 06:01:25;;;;;;;10.95;2.17;;;;;;;15.14;45.66;101553.38;1721608;83;21187;-44
2022/04/30 06:03:53;;;;;;;3.12;2.45;;;;;;;15.20;44.35;101551.52;1692630;84;20963;-44
2022/04/30 06:06:20;;;;;;;17.60;2.90;;;;;;;15.12;44.32;101544.30;1692628;84;21003;-44
2022/04/30 06:08:48;;;;;;;5.58;2.10;;;;;;;14.99;45.22;101551.94;1692716;84;20991;-44
2022/04/30 06:11:16;;;;;;;8.25;2.10;;;;;;;15.12;45.13;101548.21;1695065;83;20982;-44
2022/04/30 06:13:43;;;;;;;8.73;1.90;;;;;;;15.30;43.81;101549.58;1694861;83;21153;-44
2022/04/30 06:16:10;;;;;;;3.60;2.00;;;;;;;15.37;43.21;101555.07;1692581;84;21053;-44
2022/04/30 06:18:36;;;;;;;9.80;2.60;;;;;;;15.38;44.62;101549.42;1692660;84;20955;-44
2022/04/30 06:21:03;;;;;;;4.50;2.25;;;;;;;15.47;44.63;101553.13;1692735;84;20970;-44
2022/04/30 06:23:30;;;;;;;3.45;2.17;;;;;;;15.62;44.29;101553.70;1692699;84;20903;-45
2022/04/30 06:25:58;;;;;;;12.20;2.55;;;;;;;15.69;44.66;101552.66;1721467;83;21036;-45
2022/04/30 06:28:25;;;;;;;7.50;1.90;;;;;;;15.79;44.27;101558.53;1721646;82;21556;-44
2022/04/30 06:30:51;;;;;;;5.53;2.47;;;;;;;15.80;43.68;101554.59;1692739;84;21398;-44
2022/04/30 06:33:18;;;;;;;4.67;2.00;;;;;;;15.83;43.64;101561.94;1692696;84;20943;-45
2022/04/30 06:35:44;;;;;;;2.52;1.90;;;;;;;15.88;43.43;101564.00;1692681;84;20990;-44
2022/04/30 06:38:11;;;;;;;2.15;1.92;;;;;;;15.91;42.98;101560.03;1692619;84;21242;-45
2022/04/30 06:40:38;;;;;;;6.62;1.62;;;;;;;15.97;42.43;101561.19;1693055;84;20943;-44
2022/04/30 06:43:05;;;;;;;7.87;1.52;;;;;;;15.99;42.82;101565.92;1692694;83;20915;-44
2022/04/30 06:45:33;;;;;;;1.40;1.10;;;;;;;16.07;40.78;101561.41;1692524;84;20955;-44
2022/04/30 06:48:00;;;;;;;3.37;1.60;;;;;;;16.16;38.09;101555.07;1692803;84;20955;-44
2022/04/30 06:50:27;;;;;;;6.40;1.30;;;;;;;16.20;36.68;101555.43;1692664;84;21242;-45
2022/04/30 06:58:25;;;;;;;3.33;1.30;;;;;;;16.42;37.79;101553.59;1703116;84;20490;-43
2022/04/30 07:03:27;;;;;;;5.87;1.50;;;;;;;16.60;36.97;101548.33;1721840;83;21286;-44
2022/04/30 07:06:02;;;;;;;3.83;1.67;;;;;;;16.76;37.92;101544.85;1692491;84;20958;-45
2022/04/30 07:08:24;;;;;;;1.35;1.12;;;;;;;16.94;34.92;101547.41;1692015;84;20915;-44
2022/04/30 07:10:51;;;;;;;2.50;1.57;;;;;;;16.61;33.81;101546.56;1721576;83;20892;-44
2022/04/30 07:13:17;;;;;;;5.92;1.30;;;;;;;16.48;36.45;101544.72;1721657;83;20911;-44
2022/04/30 07:15:44;;;;;;;9.23;1.30;;;;;;;16.58;37.93;101542.29;1692710;84;21250;-44
2022/04/30 07:18:12;;;;;;;7.78;1.62;;;;;;;16.74;36.92;101540.55;1667162;84;21477;-44
2022/04/30 07:20:39;;;;;;;6.25;1.27;;;;;;;17.01;38.29;101535.05;1692624;84;20947;-44
2022/04/30 07:23:05;;;;;;;3.50;1.17;;;;;;;17.13;34.78;101533.84;1692598;83;21019;-44
2022/04/30 07:25:33;;;;;;;0.90;0.90;;;;;;;17.12;34.56;101537.36;1695281;83;20963;-45
2022/04/30 07:28:00;;;;;;;2.72;1.00;;;;;;;17.20;33.83;101536.68;1721669;83;21248;-45
2022/04/30 07:30:27;;;;;;;5.90;1.40;;;;;;;17.38;35.81;101530.03;1692696;84;21003;-45
2022/04/30 07:32:54;;;;;;;4.92;1.52;;;;;;;17.62;37.07;101530.66;1692713;84;20990;-44
2022/04/30 07:35:20;;;;;;;4.50;1.55;;;;;;;17.64;37.62;101527.55;1692624;84;21489;-44
2022/04/30 07:37:48;;;;;;;4.78;1.30;;;;;;;17.81;38.00;101529.63;1693053;84;20955;-44
2022/04/30 07:40:15;;;;;;;5.92;1.92;;;;;;;18.07;35.06;101524.90;1692684;84;21276;-45
2022/04/30 07:42:42;;;;;;;6.53;1.92;;;;;;;18.32;35.96;101526.69;1692846;84;21553;-45
2022/04/30 07:45:10;;;;;;;2.17;1.50;;;;;;;18.34;35.06;101522.25;1692609;84;21610;-44
2022/04/30 07:47:37;;;;;;;2.55;1.47;;;;;;;18.35;35.21;101521.78;1692542;84;21006;-44
2022/04/30 07:50:05;;;;;;;3.47;1.67;;;;;;;18.47;34.89;101515.27;1692992;84;21619;-44
2022/04/30 07:52:33;;;;;;;3.22;1.40;;;;;;;18.60;34.53;101513.06;1721703;83;20884;-44
2022/04/30 07:55:05;;;;;;;4.62;1.57;;;;;;;18.53;36.61;101513.28;1721600;83;20895;-45
2022/04/30 07:57:32;;;;;;;4.50;1.92;;;;;;;18.70;35.49;101514.91;1692657;84;20859;-45
2022/04/30 07:59:59;;;;;;;3.80;1.55;;;;;;;18.79;32.80;101519.80;1692748;84;20891;-46
2022/04/30 08:02:25;;;;;;;4.17;1.57;;;;;;;18.64;32.94;101508.98;1692713;84;21003;-47
2022/04/30 08:04:52;;;;;;;5.35;2.60;;;;;;;18.76;34.58;101508.12;1692644;84;21596;-47
2022/04/30 08:07:20;;;;;;;5.20;1.57;;;;;;;18.93;34.66;101507.50;1721653;83;20915;-46
2022/04/30 08:09:47;;;;;;;4.42;1.70;;;;;;;19.06;34.89;101510.55;1721539;82;20896;-49
2022/04/30 08:12:13;;;;;;;3.60;1.40;;;;;;;19.09;34.92;101506.53;1692773;84;20994;-46
2022/04/30 08:14:43;;;;;;;6.10;1.75;;;;;;;19.04;35.17;101505.82;1692865;84;20899;-46
2022/04/30 08:17:13;;;;;;;6.72;1.77;;;;;;;18.96;34.14;101501.69;1692792;83;21263;-45
2022/04/30 08:19:40;;;;;;;5.45;1.50;;;;;;;18.85;34.10;101497.31;1692680;84;20951;-46
2022/04/30 08:22:07;;;;;;;3.50;1.30;;;;;;;18.78;32.86;101501.92;1692758;84;21002;-48
2022/04/30 08:24:33;;;;;;;3.60;1.27;;;;;;;18.59;33.47;101499.11;1692553;83;20947;-47
2022/04/30 08:27:00;;;;;;;3.10;1.55;;;;;;;18.50;33.72;101502.05;1721397;83;20999;-47
2022/04/30 08:29:28;;;;;;;9.63;1.60;;;;;;;18.51;34.75;101498.52;1721631;83;21256;-46
2022/04/30 08:31:55;;;;;;;3.20;1.40;;;;;;;18.50;33.98;101491.55;1692487;83;21599;-45
2022/04/30 08:34:22;;;;;;;7.08;1.15;;;;;;;18.26;33.51;101490.19;1692723;83;20959;-45
2022/04/30 08:36:49;;;;;;;4.90;1.65;;;;;;;18.04;35.16;101494.84;1721398;83;21002;-48
2022/04/30 08:39:16;;;;;;;7.03;1.30;;;;;;;18.09;35.77;101487.72;1721536;82;21512;-47
2022/04/30 08:41:42;;;;;;;6.05;2.10;;;;;;;18.34;34.73;101487.31;1692609;84;21095;-46
2022/04/30 08:44:17;;;;;;;5.53;1.30;;;;;;;18.59;35.93;101493.00;1692515;84;21006;-47
2022/04/30 08:46:45;;;;;;;2.40;1.35;;;;;;;18.71;33.52;101485.14;1721641;83;21003;-47
2022/04/30 08:49:12;;;;;;;2.83;1.20;;;;;;;18.77;33.98;101487.53;1721264;83;20947;-46
2022/04/30 08:51:39;;;;;;;1.32;1.22;;;;;;;18.77;33.61;101488.85;1692735;84;20995;-46
2022/04/30 08:54:06;;;;;;;4.50;1.50;;;;;;;18.60;31.83;101489.02;1692977;84;21587;-45
2022/04/30 08:56:36;;;;;;;6.58;1.42;;;;;;;18.35;32.86;101491.20;1692717;84;20931;-45
2022/04/30 08:59:05;;;;;;;3.00;1.75;;;;;;;18.22;33.95;101496.45;1721760;82;21521;-46
2022/04/30 09:01:50;;;;;;;5.05;3.67;;;;;;;18.13;32.90;101491.06;1721626;82;20945;-46
2022/04/30 09:04:18;;;;;;;4.62;1.50;;;;;;;18.04;32.96;101497.46;1692674;84;21469;-45
2022/04/30 09:06:55;;;;;;;4.53;2.85;;;;;;;17.99;33.79;101482.80;1692735;83;21104;-46
2022/04/30 09:09:28;;;;;;;3.47;1.47;;;;;;;17.94;32.75;101491.67;1692701;84;21585;-46
2022/04/30 09:11:57;;;;;;;2.83;1.42;;;;;;;18.03;32.46;101480.50;1692442;84;20990;-46
2022/04/30 09:14:25;;;;;;;4.62;1.20;;;;;;;18.43;32.55;101478.28;1667469;84;20884;-44
2022/04/30 09:17:10;;;;;;;4.78;1.20;;;;;;;18.99;31.92;101478.47;1721497;83;20987;-47
2022/04/30 09:19:56;;;;;;;2.75;1.52;;;;;;;19.54;32.08;101474.61;1721889;82;21295;-45
2022/04/30 09:22:35;;;;;;;9.30;1.77;;;;;;;19.64;31.47;101473.30;1692687;84;21009;-45
2022/04/30 09:25:07;;;;;;;12.37;1.25;;;;;;;18.96;32.03;101471.52;1692665;84;21034;-45
2022/04/30 09:27:34;;;;;;;5.33;1.40;;;;;;;18.66;33.37;101467.83;1692732;83;21556;-44
2022/04/30 09:30:02;;;;;;;4.15;1.60;;;;;;;18.50;33.01;101466.22;1665584;84;20987;-46
2022/04/30 09:32:29;;;;;;;8.03;1.52;;;;;;;18.34;33.76;101471.15;1721713;83;21134;-46
2022/04/30 09:37:41;;;;;;;9.65;1.80;;;;;;;18.06;33.75;101472.10;1692663;84;21086;-45
2022/04/30 09:40:18;;;;;;;2.47;1.25;;;;;;;17.99;33.54;101473.63;1721577;82;20935;-45
2022/04/30 09:42:48;;;;;;;1.80;1.30;;;;;;;17.98;33.47;101471.92;1721657;83;20947;-46
2022/04/30 09:45:29;;;;;;;6.05;1.25;;;;;;;18.06;33.60;101465.55;1692856;83;21224;-46
2022/04/30 09:47:58;;;;;;;3.37;1.50;;;;;;;18.18;33.41;101468.65;1692644;84;20914;-45
2022/04/30 09:56:06;;;;;;;8.97;1.77;;;;;;;18.16;33.40;101467.84;1693233;84;21567;-45
2022/04/30 09:58:36;;;;;;;4.12;1.47;;;;;;;18.19;33.76;101461.19;1692661;83;21813;-46
2022/04/30 10:01:04;;;;;;;3.50;1.15;;;;;;;18.22;33.54;101463.70;1692519;84;21490;-45
2022/04/30 10:03:31;;;;;;;2.65;0.90;;;;;;;18.24;31.96;101461.44;1721362;83;20872;-45
2022/04/30 10:06:01;;;;;;;3.72;1.40;;;;;;;18.24;32.02;101460.56;1721511;83;20951;-45
2022/04/30 10:08:31;;;;;;;1.77;1.10;;;;;;;18.00;32.06;101458.31;1691172;83;20996;-45
2022/04/30 10:11:37;;;;;;;1.55;1.40;;;;;;;17.87;32.99;101456.09;1721857;83;21366;-45
2022/04/30 10:14:35;;;;;;;3.77;1.30;;;;;;;17.53;33.12;101460.66;1692630;84;20900;-45
2022/04/30 10:17:25;;;;;;;1.70;1.12;;;;;;;17.15;32.70;101451.38;1692680;84;20924;-45
2022/04/30 10:19:31;;;;;;;1.20;1.10;;;;;;;17.00;33.79;101450.95;1655826;84;20955;-47
2022/04/30 10:22:17;;;;;;;2.30;1.10;;;;;;;17.10;33.78;101447.63;1688831;84;20994;-45
2022/04/30 10:24:52;;;;;;;1.20;0.93;;;;;;;17.20;33.82;101445.59;1692600;84;21254;-45
2022/04/30 10:27:19;;;;;;;2.55;1.20;;;;;;;17.24;32.80;101444.11;1692905;83;21560;-45
2022/04/30 10:29:58;;;;;;;5.83;1.10;;;;;;;17.14;33.39;101450.98;1692624;84;21000;-46
2022/04/30 10:32:37;;;;;;;3.27;1.20;;;;;;;17.17;33.70;101447.83;1692686;83;21010;-46
2022/04/30 10:35:05;;;;;;;4.72;1.20;;;;;;;17.30;33.15;101436.97;1692654;84;20943;-45
2022/04/30 10:37:35;;;;;;;4.95;1.02;;;;;;;17.17;34.07;101441.30;1692589;84;21158;-45
2022/04/30 10:40:07;;;;;;;3.70;1.42;;;;;;;17.09;34.74;101444.60;1692623;84;20966;-45
2022/04/30 10:42:45;;;;;;;5.58;1.20;;;;;;;17.31;34.30;101443.48;1665611;84;20951;-46
2022/04/30 10:45:15;;;;;;;1.52;1.35;;;;;;;17.60;32.29;101441.70;1721915;83;20994;-45
2022/04/30 10:47:58;;;;;;;2.00;1.32;;;;;;;17.85;32.07;101437.43;1692661;84;21038;-46
2022/04/30 10:50:25;;;;;;;5.85;1.60;;;;;;;17.91;30.21;101424.96;1692669;84;21176;-46
2022/04/30 10:52:54;;;;;;;2.75;1.50;;;;;;;18.01;32.21;101418.98;1692709;84;20983;-46
2022/04/30 10:55:21;;;;;;;4.10;1.37;;;;;;;18.24;32.81;101423.45;1692748;84;21006;-46
2022/04/30 10:57:48;;;;;;;2.67;1.50;;;;;;;18.75;31.43;101426.42;1721348;82;21014;-46
2022/04/30 11:00:15;;;;;;;3.33;1.35;;;;;;;19.30;30.16;101419.55;1721559;83;20872;-47
2022/04/30 11:02:41;;;;;;;5.78;1.85;;;;;;;19.24;30.62;101410.61;1692820;84;21143;-45
2022/04/30 11:05:22;;;;;;;4.05;1.70;;;;;;;18.88;32.65;101413.27;1692620;84;21014;-46
2022/04/30 11:07:49;;;;;;;5.97;2.22;;;;;;;18.41;33.74;101403.62;1673389;84;21031;-46
2022/04/30 11:10:16;;;;;;;7.35;1.98;;;;;;;18.21;33.50;101422.25;1735643;82;20984;-46
2022/04/30 11:12:46;;;;;;;3.72;1.50;;;;;;;18.33;33.87;101409.61;1735927;82;20969;-45
2022/04/30 11:15:14;;;;;;;3.40;1.92;;;;;;;18.47;32.71;101406.48;1735935;82;21491;-47
2022/04/30 11:17:45;;;;;;;1.40;1.30;;;;;;;18.51;31.93;101406.77;1735846;82;20925;-45
2022/04/30 11:20:22;;;;;;;4.53;1.47;;;;;;;18.56;32.61;101405.29;1735792;82;21008;-46
2022/04/30 11:22:56;;;;;;;3.87;1.42;;;;;;;18.69;32.06;101401.28;1716430;82;20969;-46
2022/04/30 11:25:37;;;;;;;5.45;3.20;;;;;;;18.43;33.18;101398.34;1735895;81;20933;-46
2022/04/30 11:28:10;;;;;;;4.03;1.65;;;;;;;18.33;33.92;101398.68;1717227;82;21192;-46
2022/04/30 11:30:43;;;;;;;4.92;1.42;;;;;;;18.56;33.25;101404.81;1735742;81;20976;-46
2022/04/30 11:33:09;;;;;;;1.30;1.20;;;;;;;18.81;33.90;101404.77;1735884;82;20929;-45
2022/04/30 11:35:36;;;;;;;2.40;1.45;;;;;;;19.02;32.91;101398.33;1735742;82;20985;-45
2022/04/30 11:38:03;;;;;;;7.12;2.02;;;;;;;19.26;31.56;101390.84;1735830;82;20854;-45
2022/04/30 11:40:32;;;;;;;1.85;1.17;;;;;;;19.39;30.50;101391.59;1735832;82;21557;-46
2022/04/30 11:42:59;;;;;;;3.95;1.30;;;;;;;19.34;31.37;101386.16;1736044;82;20961;-45
2022/04/30 11:45:29;;;;;;;8.43;1.55;;;;;;;19.62;30.41;101379.29;1735596;82;21455;-46
2022/04/30 11:48:05;;;;;;;3.60;1.50;;;;;;;20.03;29.95;101382.88;1735851;82;21474;-46
2022/04/30 11:50:32;;;;;;;4.40;1.40;;;;;;;20.15;28.70;101373.61;1715375;82;20866;-46
2022/04/30 11:52:58;;;;;;;2.10;1.20;;;;;;;19.76;30.28;101371.30;1735927;82;21166;-46
2022/04/30 11:55:25;;;;;;;4.03;1.12;;;;;;;19.67;30.70;101369.92;1735744;82;20913;-47
2022/04/30 11:57:51;;;;;;;4.80;1.60;;;;;;;19.71;30.36;101363.61;1735851;82;20960;-46
2022/04/30 12:00:19;;;;;;;2.37;1.45;;;;;;;19.90;29.16;101360.20;1735728;81;20917;-45
2022/04/30 12:02:48;;;;;;;6.95;1.40;;;;;;;19.89;29.76;101359.81;1735829;81;20905;-47
2022/04/30 12:05:14;;;;;;;4.78;1.20;;;;;;;20.29;29.60;101356.74;1735810;82;21249;-46
2022/04/30 12:07:43;;;;;;;3.45;1.30;;;;;;;20.89;28.42;101348.34;1742038;81;20952;-45
2022/04/30 12:10:19;;;;;;;2.65;1.32;;;;;;;21.30;27.99;101351.20;1744008;82;20845;-45